Terminal Aerodrome Forecast
Issued by NWS

Home | Current Version | Previous Version | Text Only | Print | Product List | Glossary On
Versions: 1 2 3 4 5 6 7 8 9 10 11 12 13 14 15 16 17 18
000
FTUS45 KGJT 191120
TAFRIL
TAF
KRIL 191120Z 1912/2012 16006KT P6SM OVC080
     FM191600 26006KT P6SM VCSH SCT050 OVC070
      TEMPO 1916/1920 -SHRA BKN050
     FM192000 30006KT P6SM VCSH SCT050 OVC080
     FM200100 20005KT P6SM VCSH SCT060 BKN100
     FM200600 17003KT P6SM BKN120=

USA.gov is the U.S. government's official web portal to all federal, state and local government web resources and services.